Time;durP1;ratioP1;P1;durP2;ratioP2;P2;SDS_P1;SDS_P2;PMS_P1;PMS_P2;Temp;Humidity;BMP_temperature;BMP_pressure;BME280_temperature;BME280_humidity;BME280_pressure;Samples;Min_cycle;Max_cycle;Signal;HPM_P1;HPM_P2
2022/07/11 00:02:04;;;;;;;17.93;16.17;;;;;;;15.75;94.79;101095.81;5052436;28;20036;-72
2022/07/11 00:04:31;;;;;;;19.73;16.13;;;;;;;15.76;94.66;101097.47;5052777;28;20424;-72
2022/07/11 00:06:57;;;;;;;20.40;16.07;;;;;;;15.74;94.74;101102.19;5051335;28;20082;-72
2022/07/11 00:09:22;;;;;;;17.38;15.55;;;;;;;15.74;94.78;101112.94;5052440;28;20040;-71
2022/07/11 00:11:48;;;;;;;23.80;18.70;;;;;;;15.76;95.39;101121.63;5051760;28;20032;-73
2022/07/11 00:14:15;;;;;;;23.35;18.55;;;;;;;15.70;95.00;101111.66;5050154;28;20037;-72
2022/07/11 00:16:40;;;;;;;26.63;21.08;;;;;;;15.78;95.02;101122.28;5051346;28;20033;-73
2022/07/11 00:19:06;;;;;;;23.30;20.15;;;;;;;15.76;95.77;101116.25;5051111;28;20809;-72
2022/07/11 00:21:57;;;;;;;26.87;22.47;;;;;;;15.79;95.80;101113.19;5051450;28;20053;-73
2022/07/11 00:24:24;;;;;;;22.52;20.13;;;;;;;15.76;95.83;101118.13;5051731;28;20105;-73
2022/07/11 00:26:51;;;;;;;21.23;18.98;;;;;;;15.77;95.72;101120.63;5051306;28;20037;-73
2022/07/11 00:29:17;;;;;;;19.52;17.50;;;;;;;15.74;95.28;101110.25;5055669;28;20047;-72
2022/07/11 00:31:43;;;;;;;20.50;18.27;;;;;;;15.79;95.25;101118.56;5054765;28;20037;-72
2022/07/11 00:34:09;;;;;;;21.75;19.27;;;;;;;15.73;95.40;101113.97;5054826;28;20074;-72
2022/07/11 00:36:35;;;;;;;19.10;16.98;;;;;;;15.72;95.27;101106.94;5054737;28;20053;-72
2022/07/11 00:39:00;;;;;;;21.13;18.93;;;;;;;15.73;95.13;101099.69;5054946;28;20040;-71
2022/07/11 00:41:26;;;;;;;19.90;16.63;;;;;;;15.71;95.52;101099.88;5054707;28;20436;-72
2022/07/11 00:43:58;;;;;;;21.50;19.37;;;;;;;15.67;95.43;101093.22;5054721;28;20078;-73
2022/07/11 00:46:25;;;;;;;20.08;18.20;;;;;;;15.55;95.58;101075.88;5054762;28;20035;-74
2022/07/11 00:48:51;;;;;;;20.00;17.50;;;;;;;15.64;95.29;101104.34;5053131;28;20131;-71
2022/07/11 00:51:21;;;;;;;18.27;16.40;;;;;;;15.68;95.32;101104.81;5054696;28;20121;-71
2022/07/11 00:53:51;;;;;;;17.30;15.50;;;;;;;15.67;95.24;101108.50;5054522;28;20396;-72
2022/07/11 00:56:19;;;;;;;18.03;16.10;;;;;;;15.65;95.31;101095.28;5054416;28;20537;-72
2022/07/11 00:58:47;;;;;;;18.55;15.45;;;;;;;15.68;95.17;101094.91;5054206;28;20025;-73
2022/07/11 01:01:12;;;;;;;17.15;15.48;;;;;;;15.66;95.07;101093.44;5054311;28;20044;-73
2022/07/11 01:03:40;;;;;;;17.38;15.68;;;;;;;15.65;95.24;101097.97;5054506;28;20091;-73
2022/07/11 01:06:07;;;;;;;16.88;15.10;;;;;;;15.68;94.81;101111.00;5054425;28;20087;-72
2022/07/11 01:08:37;;;;;;;15.82;14.15;;;;;;;15.67;95.21;101114.72;5054152;28;20515;-72
2022/07/11 01:11:04;;;;;;;17.03;15.33;;;;;;;15.67;94.96;101112.03;5052633;28;20501;-73
2022/07/11 01:13:30;;;;;;;17.90;15.47;;;;;;;15.65;95.04;101105.19;5054331;28;20128;-71
2022/07/11 01:16:14;;;;;;;19.50;14.27;;;;;;;15.66;95.12;101110.38;5053017;28;20424;-72
2022/07/11 01:18:44;;;;;;;17.27;15.43;;;;;;;15.55;95.33;101110.78;5054143;28;20120;-70
2022/07/11 01:21:28;;;;;;;16.57;14.90;;;;;;;15.64;94.87;101133.06;5053886;28;20059;-72
2022/07/11 01:23:56;;;;;;;16.67;14.85;;;;;;;15.54;95.14;101119.88;5054309;28;20061;-72
2022/07/11 01:26:23;;;;;;;17.47;15.63;;;;;;;15.61;95.10;101134.25;5054244;28;20037;-71
2022/07/11 01:28:50;;;;;;;18.87;16.87;;;;;;;15.60;94.93;101148.66;5054227;28;20251;-73
2022/07/11 01:31:16;;;;;;;20.77;15.47;;;;;;;15.56;95.09;101157.25;5053842;28;20255;-72
2022/07/11 01:33:41;;;;;;;17.40;15.67;;;;;;;15.57;95.07;101150.88;5054070;28;20412;-72
2022/07/11 01:36:07;;;;;;;17.53;15.33;;;;;;;15.58;95.26;101148.03;5054017;28;20037;-71
2022/07/11 01:38:33;;;;;;;17.80;16.00;;;;;;;15.56;95.07;101138.47;5053836;28;20484;-72
2022/07/11 01:40:58;;;;;;;18.58;16.70;;;;;;;15.52;94.99;101132.63;5053769;28;20047;-71
2022/07/11 01:43:24;;;;;;;21.70;15.30;;;;;;;15.55;94.73;101131.44;5053686;28;20049;-73
2022/07/11 01:45:52;;;;;;;20.43;16.70;;;;;;;15.61;94.75;101130.72;5052265;28;20032;-72
2022/07/11 01:48:17;;;;;;;19.93;15.97;;;;;;;15.58;95.21;101126.56;5053368;28;20040;-73
2022/07/11 01:50:43;;;;;;;17.33;15.63;;;;;;;15.66;95.04;101141.75;5053562;28;20037;-72
2022/07/11 01:53:08;;;;;;;17.70;15.80;;;;;;;15.68;95.00;101132.50;5053562;28;20039;-71
2022/07/11 01:55:34;;;;;;;19.87;16.70;;;;;;;15.76;94.59;101134.22;5053467;28;20040;-71
2022/07/11 01:57:59;;;;;;;18.08;15.80;;;;;;;15.83;94.15;101137.00;5053485;28;20475;-73
2022/07/11 02:00:25;;;;;;;18.67;15.33;;;;;;;15.85;93.77;101132.25;5053232;28;20040;-72
2022/07/11 02:02:50;;;;;;;20.85;18.75;;;;;;;15.88;93.72;101123.81;5053094;28;20167;-72
2022/07/11 02:05:16;;;;;;;21.93;19.10;;;;;;;15.89;93.96;101123.63;5052990;28;20510;-72
2022/07/11 02:10:29;;;;;;;21.55;19.25;;;;;;;15.98;93.73;101114.47;5053022;28;20511;-72
2022/07/11 02:12:59;;;;;;;28.58;23.63;;;;;;;16.08;93.26;101116.84;5052922;28;20044;-72
2022/07/11 02:15:26;;;;;;;23.67;21.17;;;;;;;16.17;93.32;101120.22;5052867;28;20404;-71
2022/07/11 02:17:52;;;;;;;24.98;22.40;;;;;;;16.23;93.12;101114.94;5052879;28;20071;-72
2022/07/11 02:20:22;;;;;;;22.10;19.73;;;;;;;16.08;92.25;101073.84;5052872;28;20096;-72
2022/07/11 02:22:51;;;;;;;23.83;21.35;;;;;;;16.10;92.02;101077.19;5052929;28;20045;-73
2022/07/11 02:25:18;;;;;;;22.15;18.25;;;;;;;16.31;91.52;101101.38;5052797;28;20372;-73
2022/07/11 02:27:44;;;;;;;22.98;19.05;;;;;;;16.41;91.62;101111.81;5052701;28;20044;-72
2022/07/11 02:30:10;;;;;;;20.83;18.63;;;;;;;16.45;91.70;101101.50;5051313;28;20040;-72
2022/07/11 02:32:37;;;;;;;21.60;19.40;;;;;;;16.41;91.50;101099.19;5051477;28;20499;-72
2022/07/11 02:35:04;;;;;;;22.48;18.38;;;;;;;16.36;91.42;101084.66;5052715;28;20044;-71
2022/07/11 02:37:29;;;;;;;26.80;19.20;;;;;;;16.44;91.17;101095.28;5052652;28;20041;-71
2022/07/11 02:39:56;;;;;;;21.00;17.63;;;;;;;16.51;91.03;101098.88;5052342;28;20044;-73
2022/07/11 02:42:22;;;;;;;22.10;19.83;;;;;;;16.62;91.32;101102.91;5052415;28;20182;-71
2022/07/11 02:44:47;;;;;;;20.73;18.58;;;;;;;16.63;90.83;101101.88;5052472;28;20064;-73
2022/07/11 02:47:16;;;;;;;23.98;20.90;;;;;;;16.74;90.27;101109.44;5052386;28;20098;-71
2022/07/11 02:49:41;;;;;;;;;;;;;;;16.91;90.28;101118.91;5052645;28;20033;-72
2022/07/11 02:52:07;;;;;;;28.58;22.25;;;;;;;16.88;89.80;101124.66;5052340;28;19924;-73
2022/07/11 02:54:32;;;;;;;23.10;20.80;;;;;;;16.81;89.84;101129.19;5052344;28;20039;-73
2022/07/11 02:56:58;;;;;;;25.88;22.75;;;;;;;16.84;90.03;101130.63;5052137;28;20489;-71
2022/07/11 02:59:23;;;;;;;25.95;23.13;;;;;;;17.45;87.83;101131.69;5052403;28;20040;-72
2022/07/11 03:01:50;;;;;;;26.10;23.33;;;;;;;18.90;81.70;101134.00;5050982;28;20179;-71
2022/07/11 03:04:16;;;;;;;26.02;22.38;;;;;;;20.26;76.04;101134.03;5052130;28;20037;-72
2022/07/11 03:06:42;;;;;;;23.88;21.10;;;;;;;21.06;71.71;101118.03;5052130;28;20503;-72
2022/07/11 03:09:08;;;;;;;21.05;18.50;;;;;;;21.83;68.65;101125.53;5051889;28;20244;-71
2022/07/11 03:11:34;;;;;;;21.58;18.40;;;;;;;22.50;66.18;101126.28;5051943;28;20503;-71
2022/07/11 03:14:03;;;;;;;22.15;17.85;;;;;;;23.43;62.98;101122.03;5051854;28;20514;-72
2022/07/11 03:16:30;;;;;;;21.67;16.27;;;;;;;24.16;60.69;101129.50;5052137;28;20033;-73
2022/07/11 03:18:58;;;;;;;18.25;15.85;;;;;;;24.64;58.77;101131.78;5051877;28;20072;-73
2022/07/11 03:21:25;;;;;;;18.15;14.50;;;;;;;24.93;57.56;101140.69;5051742;28;20055;-73
2022/07/11 03:23:51;;;;;;;18.30;14.38;;;;;;;25.29;56.60;101141.25;5051973;28;20048;-72
2022/07/11 03:26:17;;;;;;;19.05;14.88;;;;;;;25.64;55.26;101144.44;5052338;28;20036;-73
2022/07/11 03:28:43;;;;;;;18.48;14.82;;;;;;;25.86;54.44;101146.38;5052085;28;20124;-72
2022/07/11 03:31:08;;;;;;;19.40;15.10;;;;;;;25.79;54.11;101137.59;5052293;28;20106;-73
2022/07/11 03:33:34;;;;;;;17.45;14.50;;;;;;;25.90;54.22;101147.53;5052199;28;20033;-72
2022/07/11 03:35:59;;;;;;;16.25;14.15;;;;;;;25.99;54.26;101162.34;5052262;28;20124;-72
2022/07/11 03:38:25;;;;;;;16.48;14.80;;;;;;;26.12;53.96;101159.25;5052138;28;20029;-73
2022/07/11 03:40:55;;;;;;;16.25;14.57;;;;;;;26.10;53.35;101138.75;5051479;28;20102;-73
2022/07/11 03:43:22;;;;;;;16.10;14.35;;;;;;;25.55;54.66;101161.50;5052003;28;20127;-73
2022/07/11 03:45:47;;;;;;;21.08;15.60;;;;;;;25.07;56.15;101148.53;5052750;28;20082;-73
2022/07/11 03:48:13;;;;;;;19.27;15.30;;;;;;;25.29;55.71;101152.97;5052578;28;20029;-73
2022/07/11 03:50:38;;;;;;;18.77;15.05;;;;;;;25.27;56.09;101165.22;5057305;28;20041;-72
2022/07/11 03:53:04;;;;;;;24.83;15.68;;;;;;;25.27;55.73;101157.03;5066132;28;20056;-72
2022/07/11 03:55:31;;;;;;;18.90;16.73;;;;;;;24.56;57.18;101158.56;5066024;28;20037;-72
2022/07/11 03:57:56;;;;;;;23.38;17.23;;;;;;;23.64;60.54;101155.91;5062025;28;20111;-72
2022/07/11 04:00:22;;;;;;;22.48;17.67;;;;;;;22.72;63.72;101163.75;5058920;28;20508;-73
2022/07/11 04:02:48;;;;;;;23.67;17.92;;;;;;;21.69;66.99;101153.06;5053302;28;20058;-72
2022/07/11 04:05:13;;;;;;;25.00;19.40;;;;;;;20.99;69.75;101158.72;5055537;28;20044;-75
2022/07/11 04:07:39;;;;;;;23.23;18.80;;;;;;;20.76;71.16;101169.31;5055346;28;20087;-73
2022/07/11 04:10:06;;;;;;;22.95;17.83;;;;;;;21.09;70.75;101164.44;5055292;28;20060;-72
2022/07/11 04:12:31;;;;;;;23.40;17.95;;;;;;;21.47;69.43;101172.47;5055590;28;20045;-72
2022/07/11 04:14:57;;;;;;;28.08;19.58;;;;;;;21.65;68.39;101166.22;5055509;28;20036;-73
2022/07/11 04:17:23;;;;;;;22.08;18.83;;;;;;;21.98;67.25;101162.31;5055133;28;20080;-73
2022/07/11 04:19:50;;;;;;;26.98;18.20;;;;;;;22.54;65.15;101173.63;5054992;28;20063;-73
2022/07/11 04:22:16;;;;;;;21.17;18.73;;;;;;;23.21;63.50;101172.59;5054918;28;20048;-73
2022/07/11 04:24:42;;;;;;;27.67;17.08;;;;;;;23.98;60.99;101174.03;5054854;28;20256;-73
2022/07/11 04:27:07;;;;;;;22.27;15.88;;;;;;;24.56;58.74;101174.91;5055169;28;20098;-72
2022/07/11 04:29:33;;;;;;;23.85;17.88;;;;;;;25.07;57.28;101165.72;5054858;28;20037;-72
2022/07/11 04:31:58;;;;;;;22.48;15.65;;;;;;;25.64;55.69;101176.34;5053881;28;20033;-71
2022/07/11 04:34:24;;;;;;;16.02;13.90;;;;;;;26.01;53.79;101176.56;5055389;28;20080;-73
2022/07/11 04:36:49;;;;;;;18.67;14.52;;;;;;;26.30;52.73;101184.53;5054868;28;20025;-72
2022/07/11 04:39:15;;;;;;;16.67;13.45;;;;;;;26.34;52.29;101191.19;5054700;28;20033;-72
2022/07/11 04:41:40;;;;;;;14.15;12.60;;;;;;;26.06;52.48;101178.56;5054640;28;20045;-72
2022/07/11 04:44:06;;;;;;;14.88;12.15;;;;;;;26.19;53.06;101192.63;5054907;28;20029;-74
2022/07/11 04:46:31;;;;;;;15.77;12.05;;;;;;;25.58;54.17;101191.81;5054693;28;20041;-72
2022/07/11 04:48:57;;;;;;;16.95;12.30;;;;;;;25.30;55.14;101178.34;5054880;28;20033;-73
2022/07/11 04:51:26;;;;;;;13.13;11.27;;;;;;;25.63;54.76;101182.88;5054505;28;20033;-73
2022/07/11 04:53:52;;;;;;;15.98;12.65;;;;;;;26.27;52.52;101174.13;5054220;28;20047;-72
2022/07/11 04:56:18;;;;;;;16.08;12.60;;;;;;;26.69;50.84;101177.06;5054933;28;20041;-73
2022/07/11 04:58:43;;;;;;;14.77;12.68;;;;;;;26.92;50.37;101175.91;5053564;28;20488;-73
2022/07/11 05:01:09;;;;;;;21.10;12.98;;;;;;;27.08;50.24;101185.88;5055241;28;20037;-75
2022/07/11 05:03:36;;;;;;;16.23;12.77;;;;;;;27.03;50.21;101194.03;5057620;28;20036;-73
2022/07/11 05:06:04;;;;;;;16.13;13.35;;;;;;;27.20;49.79;101183.78;5054176;28;20128;-72
2022/07/11 05:08:30;;;;;;;14.48;12.85;;;;;;;27.24;49.23;101179.44;5054040;28;20040;-70
2022/07/11 05:10:56;;;;;;;15.73;12.52;;;;;;;27.33;49.08;101185.22;5054003;28;20045;-72
2022/07/11 05:13:22;;;;;;;17.50;12.23;;;;;;;27.28;49.00;101177.81;5053652;28;20036;-72
2022/07/11 05:15:47;;;;;;;14.48;12.10;;;;;;;26.50;51.36;101184.78;5053914;28;20094;-71
2022/07/11 05:18:13;;;;;;;17.90;14.50;;;;;;;26.00;53.36;101174.09;5053720;28;20036;-73
2022/07/11 05:20:41;;;;;;;17.30;12.07;;;;;;;25.77;53.98;101180.66;5054047;28;20155;-71
2022/07/11 05:23:06;;;;;;;14.45;11.70;;;;;;;25.94;53.58;101175.94;5053734;28;20037;-72
2022/07/11 05:25:32;;;;;;;13.25;10.77;;;;;;;25.45;54.29;101175.84;5053894;28;20041;-73
2022/07/11 05:27:57;;;;;;;12.68;10.38;;;;;;;24.74;57.93;101191.03;5053877;28;20480;-72
2022/07/11 05:30:23;;;;;;;15.85;10.57;;;;;;;23.96;59.66;101176.19;5052450;28;20033;-72
2022/07/11 05:32:49;;;;;;;12.02;10.63;;;;;;;23.12;62.49;101170.22;5053604;28;20063;-72
2022/07/11 05:35:14;;;;;;;12.52;10.70;;;;;;;22.47;64.95;101183.75;5053751;28;20477;-73
2022/07/11 05:37:39;;;;;;;17.38;10.98;;;;;;;22.19;66.12;101178.09;5053481;28;20041;-71
2022/07/11 05:40:06;;;;;;;16.48;11.50;;;;;;;22.22;67.19;101185.78;5053775;28;20182;-71
2022/07/11 05:42:32;;;;;;;13.20;11.20;;;;;;;22.17;66.16;101186.47;5053924;28;20049;-72
2022/07/11 05:44:57;;;;;;;19.52;11.65;;;;;;;21.99;67.10;101191.06;5057151;28;20044;-72
2022/07/11 05:47:23;;;;;;;17.23;13.77;;;;;;;21.82;67.18;101185.41;5060848;28;20040;-72
2022/07/11 05:49:48;;;;;;;14.77;11.75;;;;;;;21.90;67.05;101194.06;5060596;28;20480;-70
2022/07/11 05:52:14;;;;;;;19.52;13.77;;;;;;;22.01;67.00;101202.53;5055334;28;20147;-72
2022/07/11 05:54:39;;;;;;;17.27;11.95;;;;;;;22.02;66.77;101196.03;5054993;28;20037;-71
2022/07/11 05:57:05;;;;;;;18.25;12.10;;;;;;;21.94;67.13;101200.69;5053712;28;20071;-73
2022/07/11 05:59:31;;;;;;;15.10;12.88;;;;;;;21.79;67.83;101202.13;5053689;28;20033;-71
2022/07/11 06:01:56;;;;;;;15.02;11.18;;;;;;;21.79;67.87;101194.00;5053274;28;20090;-72
2022/07/11 06:04:22;;;;;;;15.20;13.63;;;;;;;21.80;67.52;101201.91;5053476;28;20029;-75
2022/07/11 06:06:47;;;;;;;14.60;11.13;;;;;;;21.86;67.70;101202.88;5053107;28;20144;-71
2022/07/11 06:09:13;;;;;;;14.50;10.10;;;;;;;21.84;66.95;101200.41;5053754;28;20591;-72
2022/07/11 06:11:39;;;;;;;9.90;8.85;;;;;;;21.78;66.64;101204.03;5053820;28;20443;-72
2022/07/11 06:14:05;;;;;;;12.40;9.45;;;;;;;21.92;67.18;101210.94;5053385;28;20068;-72
2022/07/11 06:16:31;;;;;;;15.43;8.35;;;;;;;21.91;66.73;101209.28;5054090;28;20090;-72
2022/07/11 06:18:58;;;;;;;10.52;8.98;;;;;;;21.71;67.02;101211.41;5053401;28;20033;-72
2022/07/11 06:21:24;;;;;;;10.48;7.18;;;;;;;21.68;68.17;101217.25;5052813;28;20052;-72
2022/07/11 06:23:50;;;;;;;7.63;6.88;;;;;;;21.50;66.86;101215.38;5053035;28;20438;-73
2022/07/11 06:26:16;;;;;;;8.80;7.90;;;;;;;21.42;68.35;101212.13;5052231;28;20037;-70
2022/07/11 06:28:42;;;;;;;12.15;8.48;;;;;;;21.40;68.46;101217.78;5052955;28;20120;-70
2022/07/11 06:31:08;;;;;;;9.63;6.40;;;;;;;21.32;67.89;101213.44;5052744;28;20037;-71
2022/07/11 06:33:34;;;;;;;8.10;7.30;;;;;;;21.15;68.15;101206.91;5051402;28;20040;-69
2022/07/11 06:36:01;;;;;;;7.22;6.53;;;;;;;21.14;68.38;101221.50;5052645;28;20061;-70
2022/07/11 06:38:28;;;;;;;9.52;6.32;;;;;;;21.25;68.58;101203.72;5053203;28;20163;-69
2022/07/11 06:40:54;;;;;;;9.80;6.43;;;;;;;21.36;68.55;101200.28;5053011;28;20044;-69
2022/07/11 06:43:48;;;;;;;8.25;7.30;;;;;;;21.53;68.68;101220.34;5053178;28;20111;-71
2022/07/11 06:46:14;;;;;;;;;;;;;;;21.76;67.59;101216.97;5053599;28;20045;-70
2022/07/11 06:48:40;;;;;;;7.45;6.40;;;;;;;21.77;66.98;101215.94;5052971;28;19916;-71
2022/07/11 06:51:06;;;;;;;5.22;4.72;;;;;;;21.78;65.70;101217.56;5053145;28;20076;-72
2022/07/11 06:53:31;;;;;;;6.93;5.55;;;;;;;21.80;66.60;101222.78;5052917;28;20174;-75
2022/07/11 06:55:57;;;;;;;5.22;4.72;;;;;;;21.79;66.05;101230.09;5053051;28;20040;-75
2022/07/11 06:58:31;;;;;;;12.25;6.28;;;;;;;21.92;66.77;101219.06;5054040;28;20040;-76
2022/07/11 07:01:02;;;;;;;7.80;5.97;;;;;;;21.99;65.40;101227.16;5054035;28;20036;-72
2022/07/11 07:03:28;;;;;;;7.60;6.68;;;;;;;22.10;65.27;101226.41;5054802;28;20082;-69
2022/07/11 07:05:55;;;;;;;9.07;5.68;;;;;;;22.34;64.50;101232.78;5054067;28;20118;-74
2022/07/11 07:08:23;;;;;;;7.63;6.03;;;;;;;22.28;64.21;101222.03;5053442;28;20033;-69
2022/07/11 07:10:48;;;;;;;7.35;5.43;;;;;;;22.32;64.29;101218.63;5053032;28;20041;-71
2022/07/11 07:13:14;;;;;;;6.20;5.57;;;;;;;22.36;63.96;101222.53;5052118;28;20045;-76
2022/07/11 07:15:40;;;;;;;6.55;5.43;;;;;;;22.61;64.17;101221.59;5052898;28;20040;-73
2022/07/11 07:18:05;;;;;;;6.00;5.30;;;;;;;22.75;62.36;101220.31;5051967;28;20033;-70
2022/07/11 07:20:31;;;;;;;5.05;4.45;;;;;;;22.79;61.18;101240.50;5051990;28;20427;-68
2022/07/11 07:22:57;;;;;;;5.30;4.18;;;;;;;22.75;61.56;101233.88;5051765;28;20045;-68
2022/07/11 07:25:23;;;;;;;4.88;4.15;;;;;;;22.91;61.46;101229.72;5051964;28;20044;-74
2022/07/11 07:27:48;;;;;;;5.25;3.45;;;;;;;23.04;60.08;101229.50;5052110;28;20037;-73
2022/07/11 07:30:14;;;;;;;7.47;4.10;;;;;;;23.17;60.64;101224.69;5051772;28;20503;-73
2022/07/11 07:32:39;;;;;;;5.68;5.00;;;;;;;23.22;60.21;101217.72;5052238;28;20035;-73
2022/07/11 07:35:05;;;;;;;4.45;4.05;;;;;;;23.33;59.25;101220.44;5051641;28;20079;-71
2022/07/11 07:37:32;;;;;;;9.68;4.50;;;;;;;23.34;58.58;101218.56;5054723;28;20040;-72
2022/07/11 07:39:57;;;;;;;4.60;4.13;;;;;;;23.40;58.63;101225.75;5055827;28;20048;-74
2022/07/11 07:42:22;;;;;;;5.57;4.60;;;;;;;23.15;59.10;101191.50;5055938;28;20040;-73
2022/07/11 07:45:15;;;;;;;5.00;4.50;;;;;;;23.42;57.43;101223.66;5054821;28;20045;-80
2022/07/11 07:47:47;;;;;;;6.53;4.18;;;;;;;23.34;58.32;101216.66;5055507;28;20082;-74
2022/07/11 07:50:14;;;;;;;5.05;4.20;;;;;;;23.34;58.31;101221.28;5054253;28;20474;-71
2022/07/11 07:52:39;;;;;;;4.57;3.90;;;;;;;23.25;58.93;101228.13;5054668;28;20043;-69
2022/07/11 07:55:06;;;;;;;8.98;4.88;;;;;;;23.08;58.85;101227.97;5056164;28;20037;-70
2022/07/11 07:57:31;;;;;;;7.22;4.82;;;;;;;23.03;60.29;101230.56;5055664;28;20316;-72
2022/07/11 08:01:34;;;;;;;9.90;8.70;;;;;;;23.04;60.14;101221.34;5055693;28;20029;-72
2022/07/11 08:02:42;;;;;;;5.80;4.75;;;;;;;23.24;59.92;101242.78;5055817;28;20120;-73
2022/07/11 08:05:09;;;;;;;8.07;4.10;;;;;;;23.26;57.55;101240.66;5056447;28;20468;-69
2022/07/11 08:07:34;;;;;;;5.93;4.95;;;;;;;23.11;59.09;101254.66;5056356;28;20040;-71
2022/07/11 08:10:01;;;;;;;7.35;4.18;;;;;;;23.16;59.67;101236.63;5055463;28;20094;-74
2022/07/11 08:12:26;;;;;;;8.40;4.45;;;;;;;23.14;60.07;101222.44;5055756;28;20044;-74
2022/07/11 08:14:52;;;;;;;11.27;5.10;;;;;;;23.09;60.13;101226.91;5055286;28;20033;-76
2022/07/11 08:17:18;;;;;;;8.38;4.97;;;;;;;23.16;60.22;101242.06;5054776;28;20041;-72
2022/07/11 08:19:43;;;;;;;4.68;4.07;;;;;;;23.25;60.68;101245.25;5055022;28;20053;-71
2022/07/11 08:22:10;;;;;;;8.27;3.97;;;;;;;23.09;59.55;101235.88;5055042;28;20044;-73
2022/07/11 08:24:37;;;;;;;9.35;4.97;;;;;;;23.14;59.92;101238.75;5054450;28;20407;-73
2022/07/11 08:27:03;;;;;;;7.13;5.25;;;;;;;23.18;61.47;101237.22;5055110;28;20538;-73
2022/07/11 08:29:28;;;;;;;5.28;4.78;;;;;;;23.03;60.40;101234.13;5055142;28;20040;-73
2022/07/11 08:31:54;;;;;;;6.22;4.13;;;;;;;22.89;60.84;101235.41;5055919;28;20064;-69
2022/07/11 08:34:19;;;;;;;6.75;3.97;;;;;;;22.80;60.88;101234.84;5055125;28;20033;-73
2022/07/11 08:36:44;;;;;;;7.10;4.63;;;;;;;22.82;60.06;101238.19;5052522;28;20078;-72
2022/07/11 08:39:10;;;;;;;8.88;4.53;;;;;;;22.83;60.44;101231.69;5052912;28;20043;-69
2022/07/11 08:41:43;;;;;;;7.65;4.10;;;;;;;22.97;60.20;101237.75;5053990;28;20507;-69
2022/07/11 08:44:19;;;;;;;4.72;3.97;;;;;;;23.15;60.31;101245.00;5053916;28;20048;-74
2022/07/11 08:46:47;;;;;;;7.38;4.03;;;;;;;23.25;59.95;101239.81;5054234;28;20131;-73
2022/07/11 08:49:12;;;;;;;4.68;4.28;;;;;;;23.13;59.84;101233.53;5054004;28;20400;-73
2022/07/11 08:51:38;;;;;;;5.40;4.90;;;;;;;23.02;60.54;101242.50;5054591;28;20025;-69
2022/07/11 08:54:04;;;;;;;5.05;4.18;;;;;;;23.04;60.72;101248.53;5054551;28;20040;-71
2022/07/11 08:56:37;;;;;;;4.75;4.05;;;;;;;23.15;61.27;101255.88;5054089;28;20039;-76
2022/07/11 08:59:03;;;;;;;5.03;4.60;;;;;;;23.08;60.17;101245.09;5053155;28;20067;-75
2022/07/11 09:01:31;;;;;;;6.55;4.60;;;;;;;23.08;60.66;101255.97;5054669;28;20032;-75
2022/07/11 09:03:57;;;;;;;7.40;3.80;;;;;;;23.08;60.37;101258.69;5054195;28;20033;-72
2022/07/11 09:06:23;;;;;;;4.75;4.22;;;;;;;23.03;60.38;101255.84;5054145;28;20048;-75
2022/07/11 09:08:48;;;;;;;4.25;3.85;;;;;;;22.91;59.96;101259.59;5054348;28;20044;-72
2022/07/11 09:11:14;;;;;;;10.10;6.20;;;;;;;22.80;59.82;101269.31;5053090;28;20068;-75
2022/07/11 09:13:40;;;;;;;5.60;3.38;;;;;;;22.75;59.32;101266.47;5052130;28;20452;-73
2022/07/11 09:16:08;;;;;;;4.40;3.80;;;;;;;22.64;60.31;101261.84;5051564;28;20040;-73
2022/07/11 09:18:39;;;;;;;8.10;4.72;;;;;;;22.50;60.30;101266.59;5052893;28;20028;-73
2022/07/11 09:26:42;;;;;;;8.50;4.15;;;;;;;22.15;65.38;101261.81;5053092;28;20411;-74
2022/07/11 09:29:13;;;;;;;9.05;5.07;;;;;;;22.09;65.92;101270.03;5054684;28;20040;-75
2022/07/11 09:31:49;;;;;;;4.65;4.25;;;;;;;22.00;66.85;101272.22;5055124;28;20063;-74
2022/07/11 09:34:28;;;;;;;7.15;4.70;;;;;;;21.93;68.57;101268.72;5059445;28;20036;-77
2022/07/11 09:36:59;;;;;;;7.75;5.72;;;;;;;21.99;68.90;101273.25;5054379;28;20052;-73
2022/07/11 09:39:32;;;;;;;8.55;4.32;;;;;;;22.01;67.69;101282.00;5052625;28;20484;-78
2022/07/11 09:41:58;;;;;;;5.53;4.97;;;;;;;22.00;67.88;101282.22;5053926;28;20059;-71
2022/07/11 09:44:33;;;;;;;5.78;5.07;;;;;;;21.90;68.86;101271.88;5052815;28;20492;-71
2022/07/11 09:47:08;;;;;;;5.45;4.90;;;;;;;21.88;69.01;101285.66;5054263;28;20412;-71
2022/07/11 09:49:46;;;;;;;6.70;5.45;;;;;;;21.82;69.18;101294.69;5053673;28;20563;-79
2022/07/11 09:52:14;;;;;;;7.60;6.80;;;;;;;21.79;70.24;101289.72;5053998;28;20075;-72
2022/07/11 09:55:00;;;;;;;9.65;7.25;;;;;;;21.74;71.46;101303.13;5053885;28;20518;-75
2022/07/11 10:01:11;;;;;;;7.70;6.90;;;;;;;21.38;71.76;101300.28;5047440;28;20113;-69
2022/07/11 10:03:37;;;;;;;13.95;8.85;;;;;;;21.43;71.88;101303.19;5054286;28;20040;-71
2022/07/11 10:06:02;;;;;;;7.07;6.38;;;;;;;21.41;72.57;101297.19;5052220;28;20452;-72
2022/07/11 10:08:28;;;;;;;7.93;4.80;;;;;;;21.40;70.41;101306.34;5053085;28;20553;-75
2022/07/11 10:10:55;;;;;;;7.20;5.57;;;;;;;21.39;69.42;101310.09;5053164;28;20040;-71
2022/07/11 10:13:21;;;;;;;6.50;4.53;;;;;;;21.33;70.04;101296.38;5052856;28;20032;-76
2022/07/11 10:15:47;;;;;;;8.35;4.95;;;;;;;21.42;67.95;101304.25;5053176;28;20483;-73
2022/07/11 10:18:31;;;;;;;5.03;4.53;;;;;;;21.42;67.02;101307.78;5053328;28;20076;-69
2022/07/11 10:21:03;;;;;;;5.07;4.60;;;;;;;21.37;66.87;101304.06;5053437;28;20059;-71
2022/07/11 10:23:54;;;;;;;7.90;4.85;;;;;;;21.39;69.34;101308.19;5052976;28;20127;-69
2022/07/11 10:26:46;;;;;;;8.30;6.45;;;;;;;21.38;69.57;101311.13;5053097;28;20032;-71
2022/07/11 10:29:29;;;;;;;5.35;4.57;;;;;;;21.20;70.20;101299.16;5053158;28;20059;-71
2022/07/11 10:32:05;;;;;;;6.07;4.88;;;;;;;21.13;70.65;101311.94;5054969;28;20036;-72
2022/07/11 10:34:31;;;;;;;5.18;4.45;;;;;;;21.16;70.77;101308.78;5053163;28;20531;-75
2022/07/11 10:37:04;;;;;;;8.05;5.88;;;;;;;21.22;72.15;101307.91;5053400;28;20178;-74
2022/07/11 10:39:30;;;;;;;5.40;4.90;;;;;;;21.07;72.05;101307.38;5060169;28;20131;-74
2022/07/11 10:41:58;;;;;;;5.05;4.65;;;;;;;21.08;72.97;101314.44;5067324;28;20044;-75
2022/07/11 10:44:25;;;;;;;7.25;6.20;;;;;;;20.97;73.55;101310.56;5067825;28;20005;-75
2022/07/11 10:46:53;;;;;;;8.70;6.00;;;;;;;20.85;74.54;101296.06;5066672;28;20040;-75
2022/07/11 10:49:43;;;;;;;8.40;7.70;;;;;;;20.84;75.03;101312.53;5065013;28;20109;-75
2022/07/11 10:52:08;;;;;;;6.78;6.18;;;;;;;20.84;75.68;101301.69;5053869;28;20036;-75
2022/07/11 10:54:48;;;;;;;7.63;6.40;;;;;;;20.93;75.67;101306.63;5052530;28;20033;-75
2022/07/11 10:57:26;;;;;;;9.68;6.97;;;;;;;20.91;76.92;101308.72;5053185;28;20075;-74
2022/07/11 11:00:08;;;;;;;7.38;6.70;;;;;;;20.93;76.53;101300.38;5054409;28;20116;-74
2022/07/11 11:03:06;;;;;;;6.43;5.75;;;;;;;20.95;76.35;101312.66;5054129;28;20127;-73
2022/07/11 11:05:48;;;;;;;7.70;6.38;;;;;;;20.93;76.78;101320.16;5050465;28;20438;-75
2022/07/11 11:08:32;;;;;;;8.10;5.95;;;;;;;20.82;76.66;101330.88;5052512;28;20083;-74
2022/07/11 11:11:01;;;;;;;6.72;6.13;;;;;;;20.62;77.25;101320.97;5051736;28;20411;-77
2022/07/11 11:13:28;;;;;;;9.40;6.45;;;;;;;20.37;77.19;101319.97;5034436;28;20090;-75
2022/07/11 11:15:55;;;;;;;8.20;6.55;;;;;;;20.29;77.53;101336.47;5052712;28;20044;-75
2022/07/11 11:18:24;;;;;;;9.43;6.78;;;;;;;20.30;77.28;101343.53;5054012;28;20040;-74
2022/07/11 11:20:57;;;;;;;8.02;5.82;;;;;;;20.15;75.76;101349.16;5051866;28;20447;-76
2022/07/11 11:23:28;;;;;;;11.35;9.73;;;;;;;20.08;76.70;101349.19;5052003;28;20446;-74
2022/07/11 11:26:19;;;;;;;12.13;8.70;;;;;;;20.17;75.79;101348.94;5052405;28;20062;-74
2022/07/11 11:29:05;;;;;;;8.88;7.97;;;;;;;20.19;76.38;101346.88;5052670;28;20047;-73
2022/07/11 11:31:31;;;;;;;12.82;9.40;;;;;;;20.05;75.54;101330.69;5052669;28;20048;-76
2022/07/11 11:33:58;;;;;;;10.88;8.18;;;;;;;20.02;77.90;101336.50;5053438;28;20044;-73